Time;durP1;ratioP1;P1;durP2;ratioP2;P2;SDS_P1;SDS_P2;PMS_P1;PMS_P2;Temp;Humidity;BMP_temperature;BMP_pressure;BME280_temperature;BME280_humidity;BME280_pressure;Samples;Min_cycle;Max_cycle;Signal;HPM_P1;HPM_P2
2021/12/23 00:00:37;;;;;;;;;;;;;;;;;;5096328;28;19920;-75
2021/12/23 00:03:03;;;;;;;;;;;;;;;;;;5095062;28;19916;-75
2021/12/23 00:05:28;;;;;;;;;;;;;;;;;;5095865;28;19927;-75
2021/12/23 00:07:54;;;;;;;;;;;;;;;;;;5094974;28;19951;-74
2021/12/23 00:10:20;;;;;;;;;;;;;;;;;;5095690;28;19923;-74
2021/12/23 00:12:45;;;;;;;;;;;;;;;;;;5095160;28;19920;-74
2021/12/23 00:17:57;;;;;;;;;;;;;;;;;;5094325;28;19916;-75
2021/12/23 00:25:32;;;;;;;;;;;;;;;;;;5095312;28;19920;-74
2021/12/23 00:27:58;;;;;;;;;;;;;;;;;;5095671;28;19935;-75
2021/12/23 00:30:23;;;;;;;;;;;;;;;;;;5093503;28;19938;-75
2021/12/23 00:32:49;;;;;;;;;;;;;;;;;;5095628;28;19916;-74
2021/12/23 00:35:14;;;;;;;;;;;;;;;;;;5095315;28;19923;-74
2021/12/23 00:37:43;;;;;;;;;;;;;;;;;;5077208;28;19916;-74
2021/12/23 00:40:10;;;;;;;;;;;;;;;;;;5094994;28;19939;-74
2021/12/23 00:42:35;;;;;;;;;;;;;;;;;;5095445;28;19916;-74
2021/12/23 00:45:03;;;;;;;;;;;;;;;;;;5095269;28;20242;-74
2021/12/23 00:47:28;;;;;;;;;;;;;;;;;;5095005;28;19923;-75
2021/12/23 00:49:53;;;;;;;;;;;;;;;;;;5095050;28;20274;-74
2021/12/23 00:52:26;;;;;;;;;;;;;;;;;;5095133;28;20277;-74
2021/12/23 00:54:52;;;;;;;;;;;;;;;;;;5094532;28;19923;-74
2021/12/23 00:57:20;;;;;;;;;;;;;;;;;;5094232;28;19924;-75
2021/12/23 00:59:45;;;;;;;;;;;;;;;;;;5095061;28;20015;-74
2021/12/23 01:02:12;;;;;;;;;;;;;;;;;;5094826;28;19995;-74
2021/12/23 01:04:38;;;;;;;;;;;;;;;;;;5093981;28;19935;-74
2021/12/23 01:07:03;;;;;;;;;;;;;;;;;;5094804;28;20385;-74
2021/12/23 01:09:28;;;;;;;;;;;;;;;;;;5093431;28;19916;-75
2021/12/23 01:11:55;;;;;;;;;;;;;;;;;;5094571;28;19970;-75
2021/12/23 01:17:10;;;;;;;;;;;;;;;;;;5094437;28;19919;-74
2021/12/23 01:19:39;;;;;;;;;;;;;;;;;;5094092;28;19955;-74
2021/12/23 01:22:04;;;;;;;;;;;;;;;;;;5094493;28;19916;-75
2021/12/23 01:24:33;;;;;;;;;;;;;;;;;;5094633;28;19932;-74
2021/12/23 01:26:58;;;;;;;;;;;;;;;;;;5093778;28;19920;-75
2021/12/23 01:29:23;;;;;;;;;;;;;;;;;;5093229;28;20053;-74
2021/12/23 01:31:49;;;;;;;;;;;;;;;;;;5094457;28;20282;-74
2021/12/23 01:34:14;;;;;;;;;;;;;;;;;;5093634;28;19923;-74
2021/12/23 01:36:39;;;;;;;;;;;;;;;;;;5092767;28;19916;-74
2021/12/23 01:39:05;;;;;;;;;;;;;;;;;;5094454;28;19916;-74
2021/12/23 01:41:30;;;;;;;;;;;;;;;;;;5093977;28;19915;-74
2021/12/23 01:43:55;;;;;;;;;;;;;;;;;;5094351;28;19916;-74
2021/12/23 01:46:22;;;;;;;;;;;;;;;;;;5093173;28;20011;-74
2021/12/23 01:48:47;;;;;;;;;;;;;;;;;;5093788;28;20328;-75
2021/12/23 01:51:13;;;;;;;;;;;;;;;;;;5094071;28;19916;-74
2021/12/23 01:53:39;;;;;;;;;;;;;;;;;;5094132;28;20339;-74
2021/12/23 01:56:04;;;;;;;;;;;;;;;;;;5091186;28;20366;-74
2021/12/23 01:58:29;;;;;;;;;;;;;;;;;;5092737;28;19912;-74
2021/12/23 02:00:55;;;;;;;;;;;;;;;;;;5093835;28;19942;-74
2021/12/23 02:03:21;;;;;;;;;;;;;;;;;;5092968;28;19924;-74
2021/12/23 02:05:46;;;;;;;;;;;;;;;;;;5093867;28;20289;-74
2021/12/23 02:08:12;;;;;;;;;;;;;;;;;;5093695;28;20289;-74
2021/12/23 02:10:39;;;;;;;;;;;;;;;;;;5093833;28;19920;-74
2021/12/23 02:13:04;;;;;;;;;;;;;;;;;;5093664;28;20006;-74
2021/12/23 02:15:29;;;;;;;;;;;;;;;;;;5093855;28;19920;-74
2021/12/23 02:17:55;;;;;;;;;;;;;;;;;;5092714;28;19939;-74
2021/12/23 02:20:22;;;;;;;;;;;;;;;;;;5093811;28;19916;-74
2021/12/23 02:22:48;;;;;;;;;;;;;;;;;;5093924;28;19981;-74
2021/12/23 02:25:13;;;;;;;;;;;;;;;;;;5093390;28;20381;-74
2021/12/23 02:27:39;;;;;;;;;;;;;;;;;;5093483;28;19959;-74
2021/12/23 02:30:06;;;;;;;;;;;;;;;;;;5092790;28;19916;-74
2021/12/23 02:32:33;;;;;;;;;;;;;;;;;;5093481;28;19966;-75
2021/12/23 02:34:59;;;;;;;;;;;;;;;;;;5093602;28;19920;-75
2021/12/23 02:37:24;;;;;;;;;;;;;;;;;;5093696;28;19926;-75
2021/12/23 02:39:50;;;;;;;;;;;;;;;;;;5094171;28;19916;-75
2021/12/23 02:42:15;;;;;;;;;;;;;;;;;;5097779;28;20400;-74
2021/12/23 02:44:40;;;;;;;;;;;;;;;;;;5097382;28;20332;-74
2021/12/23 02:47:06;;;;;;;;;;;;;;;;;;5096100;28;19942;-74
2021/12/23 02:49:31;;;;;;;;;;;;;;;;;;5096023;28;20411;-75
2021/12/23 02:51:57;;;;;;;;;;;;;;;;;;5097273;28;19916;-74
2021/12/23 02:54:22;;;;;;;;;;;;;;;;;;5097609;28;19968;-74
2021/12/23 02:56:48;;;;;;;;;;;;;;;;;;5095739;28;20452;-74
2021/12/23 02:59:13;;;;;;;;;;;;;;;;;;5096240;28;19916;-75
2021/12/23 03:01:38;;;;;;;;;;;;;;;;;;5096726;28;19920;-74
2021/12/23 03:04:04;;;;;;;;;;;;;;;;;;5096870;28;19923;-74
2021/12/23 03:06:29;;;;;;;;;;;;;;;;;;5096958;28;20421;-74
2021/12/23 03:08:56;;;;;;;;;;;;;;;;;;5096089;28;19916;-74
2021/12/23 03:11:23;;;;;;;;;;;;;;;;;;5097146;28;19969;-74
2021/12/23 03:13:48;;;;;;;;;;;;;;;;;;5092348;28;19966;-74
2021/12/23 03:16:15;;;;;;;;;;;;;;;;;;5076299;28;19916;-75
2021/12/23 03:18:40;;;;;;;;;;;;;;;;;;5076562;28;19917;-75
2021/12/23 03:21:06;;;;;;;;;;;;;;;;;;5076392;28;19970;-74
2021/12/23 03:23:32;;;;;;;;;;;;;;;;;;5076614;28;19913;-75
2021/12/23 03:25:58;;;;;;;;;;;;;;;;;;5082888;28;19976;-75
2021/12/23 03:28:23;;;;;;;;;;;;;;;;;;5096468;28;20436;-75
2021/12/23 03:30:48;;;;;;;;;;;;;;;;;;5095424;28;19919;-75
2021/12/23 03:33:14;;;;;;;;;;;;;;;;;;5096725;28;19941;-75
2021/12/23 03:35:40;;;;;;;;;;;;;;;;;;5115240;28;19915;-75
2021/12/23 03:38:06;;;;;;;;;;;;;;;;;;5116863;28;20037;-75
2021/12/23 03:40:31;;;;;;;;;;;;;;;;;;5116468;28;20034;-75
2021/12/23 03:42:57;;;;;;;;;;;;;;;;;;5116628;28;20389;-75
2021/12/23 03:45:22;;;;;;;;;;;;;;;;;;5115240;28;19937;-75
2021/12/23 03:47:50;;;;;;;;;;;;;;;;;;5116482;28;19920;-75
2021/12/23 03:50:17;;;;;;;;;;;;;;;;;;5116517;28;19916;-75
2021/12/23 03:52:47;;;;;;;;;;;;;;;;;;5251065;22;19971;-95
2021/12/23 03:55:22;;;;;;;;;;;;;;;;;;5057581;28;19947;-96
2021/12/23 03:57:56;;;;;;;;;;;;;;;;;;5060806;28;19921;-96
2021/12/23 04:00:34;;;;;;;;;;;;;;;;;;5076730;28;19929;-96
2021/12/23 04:03:00;;;;;;;;;;;;;;;;;;5052605;23;20019;-76
2021/12/23 04:05:25;;;;;;;;;;;;;;;;;;5054701;28;20373;-76
2021/12/23 04:07:51;;;;;;;;;;;;;;;;;;5054919;28;19927;-76
2021/12/23 04:10:21;;;;;;;;;;;;;;;;;;5054165;28;19917;-75
2021/12/23 04:12:46;;;;;;;;;;;;;;;;;;5055123;28;19916;-75
2021/12/23 04:15:12;;;;;;;;;;;;;;;;;;5055159;28;19923;-75
2021/12/23 04:17:37;;;;;;;;;;;;;;;;;;5052796;28;19970;-75
2021/12/23 04:20:21;;;;;;;;;;;;;;;;;;5055185;28;19921;-76
2021/12/23 04:22:51;;;;;;;;;;;;;;;;;;5055153;28;20388;-76
2021/12/23 04:25:17;;;;;;;;;;;;;;;;;;5054776;28;20304;-75
2021/12/23 04:27:46;;;;;;;;;;;;;;;;;;5054587;28;19920;-75
2021/12/23 04:30:12;;;;;;;;;;;;;;;;;;5053575;28;20312;-75
2021/12/23 04:32:37;;;;;;;;;;;;;;;;;;5054911;28;19917;-75
2021/12/23 04:35:03;;;;;;;;;;;;;;;;;;5055053;28;19916;-75
2021/12/23 04:37:28;;;;;;;;;;;;;;;;;;5046010;28;19917;-75
2021/12/23 04:39:53;;;;;;;;;;;;;;;;;;5035247;28;19921;-76
2021/12/23 04:42:19;;;;;;;;;;;;;;;;;;5040802;28;20369;-76
2021/12/23 04:44:44;;;;;;;;;;;;;;;;;;5054926;28;19921;-75
2021/12/23 04:47:09;;;;;;;;;;;;;;;;;;5054490;28;19984;-76
2021/12/23 04:49:35;;;;;;;;;;;;;;;;;;5054708;28;19928;-76
2021/12/23 04:52:00;;;;;;;;;;;;;;;;;;5036703;28;20430;-75
2021/12/23 04:54:25;;;;;;;;;;;;;;;;;;5053552;28;19944;-75
2021/12/23 04:56:51;;;;;;;;;;;;;;;;;;5054156;28;19931;-75
2021/12/23 04:59:17;;;;;;;;;;;;;;;;;;5054516;28;19916;-75
2021/12/23 05:01:42;;;;;;;;;;;;;;;;;;5052998;28;19917;-76
2021/12/23 05:04:07;;;;;;;;;;;;;;;;;;5052984;28;19974;-75
2021/12/23 05:06:33;;;;;;;;;;;;;;;;;;5054253;28;19917;-76
2021/12/23 05:08:58;;;;;;;;;;;;;;;;;;5054307;28;19920;-75
2021/12/23 05:11:23;;;;;;;;;;;;;;;;;;5054040;28;19916;-75
2021/12/23 05:13:49;;;;;;;;;;;;;;;;;;5052112;28;19924;-76
2021/12/23 05:16:15;;;;;;;;;;;;;;;;;;5052783;28;19959;-76
2021/12/23 05:18:40;;;;;;;;;;;;;;;;;;5054308;28;20343;-76
2021/12/23 05:21:06;;;;;;;;;;;;;;;;;;5053888;28;19916;-76
2021/12/23 05:23:31;;;;;;;;;;;;;;;;;;5054046;28;19942;-75
2021/12/23 05:25:57;;;;;;;;;;;;;;;;;;5053879;28;19923;-75
2021/12/23 05:28:22;;;;;;;;;;;;;;;;;;5053808;28;20385;-76
2021/12/23 05:30:47;;;;;;;;;;;;;;;;;;5053956;28;20330;-75
2021/12/23 05:33:13;;;;;;;;;;;;;;;;;;5052447;28;19920;-76
2021/12/23 05:35:38;;;;;;;;;;;;;;;;;;5052544;28;20015;-75
2021/12/23 05:38:03;;;;;;;;;;;;;;;;;;5052589;28;20012;-75
2021/12/23 05:40:29;;;;;;;;;;;;;;;;;;5053876;28;19921;-75
2021/12/23 05:42:55;;;;;;;;;;;;;;;;;;5052535;28;19959;-75
2021/12/23 05:45:21;;;;;;;;;;;;;;;;;;5052509;28;19971;-76
2021/12/23 05:47:46;;;;;;;;;;;;;;;;;;5035810;28;19921;-76
2021/12/23 05:50:13;;;;;;;;;;;;;;;;;;5053810;28;19964;-76
2021/12/23 05:52:38;;;;;;;;;;;;;;;;;;5052500;28;19939;-76
2021/12/23 05:55:04;;;;;;;;;;;;;;;;;;5053770;28;20414;-76
2021/12/23 05:57:30;;;;;;;;;;;;;;;;;;5053713;28;19963;-75
2021/12/23 05:59:55;;;;;;;;;;;;;;;;;;5053259;28;19921;-75
2021/12/23 06:02:21;;;;;;;;;;;;;;;;;;5052961;28;20373;-75
2021/12/23 06:04:46;;;;;;;;;;;;;;;;;;5053540;28;19921;-76
2021/12/23 06:07:12;;;;;;;;;;;;;;;;;;5050858;28;19923;-76
2021/12/23 06:09:37;;;;;;;;;;;;;;;;;;5053367;28;19921;-75
2021/12/23 06:12:02;;;;;;;;;;;;;;;;;;5051908;28;19917;-76
2021/12/23 06:14:28;;;;;;;;;;;;;;;;;;5054673;28;19917;-75
2021/12/23 06:16:53;;;;;;;;;;;;;;;;;;5060002;28;19939;-76
2021/12/23 06:19:19;;;;;;;;;;;;;;;;;;5058726;28;19917;-76
2021/12/23 06:21:44;;;;;;;;;;;;;;;;;;5059792;28;19928;-75
2021/12/23 06:24:09;;;;;;;;;;;;;;;;;;5060321;28;19927;-75
2021/12/23 06:26:34;;;;;;;;;;;;;;;;;;5060061;28;19917;-76
2021/12/23 06:29:00;;;;;;;;;;;;;;;;;;5060092;28;19927;-75
2021/12/23 06:31:25;;;;;;;;;;;;;;;;;;5059889;28;19917;-77
2021/12/23 06:33:51;;;;;;;;;;;;;;;;;;5059773;28;19939;-75
2021/12/23 06:36:17;;;;;;;;;;;;;;;;;;5059789;28;20445;-76
2021/12/23 06:38:43;;;;;;;;;;;;;;;;;;5059905;28;19924;-75
2021/12/23 06:41:09;;;;;;;;;;;;;;;;;;5059644;28;20270;-75
2021/12/23 06:43:34;;;;;;;;;;;;;;;;;;5059547;28;19917;-76
2021/12/23 06:46:00;;;;;;;;;;;;;;;;;;5058410;28;19928;-76
2021/12/23 06:48:26;;;;;;;;;;;;;;;;;;5059876;28;20437;-76
2021/12/23 06:50:54;;;;;;;;;;;;;;;;;;5058250;28;20255;-75
2021/12/23 06:53:20;;;;;;;;;;;;;;;;;;5059426;28;19921;-75
2021/12/23 06:55:45;;;;;;;;;;;;;;;;;;5059726;28;20011;-75
2021/12/23 06:58:11;;;;;;;;;;;;;;;;;;5059808;28;19924;-75
2021/12/23 07:00:36;;;;;;;;;;;;;;;;;;5041763;28;19920;-76
2021/12/23 07:03:02;;;;;;;;;;;;;;;;;;5057166;28;19931;-76
2021/12/23 07:05:27;;;;;;;;;;;;;;;;;;5059579;28;19921;-75
2021/12/23 07:07:58;;;;;;;;;;;;;;;;;;5058187;28;19928;-75
2021/12/23 07:10:25;;;;;;;;;;;;;;;;;;5059698;28;19916;-76
2021/12/23 07:12:50;;;;;;;;;;;;;;;;;;5059680;28;20007;-75
2021/12/23 07:15:16;;;;;;;;;;;;;;;;;;5058046;28;20022;-75
2021/12/23 07:17:42;;;;;;;;;;;;;;;;;;5058951;28;19917;-76
2021/12/23 07:20:07;;;;;;;;;;;;;;;;;;5058696;28;19975;-75
2021/12/23 07:22:32;;;;;;;;;;;;;;;;;;5059342;28;20016;-75
2021/12/23 07:24:58;;;;;;;;;;;;;;;;;;5059440;28;19917;-76
2021/12/23 07:27:23;;;;;;;;;;;;;;;;;;5056569;28;20007;-75
2021/12/23 07:29:48;;;;;;;;;;;;;;;;;;5056328;28;19921;-76
2021/12/23 07:32:14;;;;;;;;;;;;;;;;;;5038413;28;20469;-76
2021/12/23 07:34:42;;;;;;;;;;;;;;;;;;5054966;28;19921;-76
2021/12/23 07:37:08;;;;;;;;;;;;;;;;;;5056018;28;19916;-75
2021/12/23 07:39:34;;;;;;;;;;;;;;;;;;5054978;28;19923;-76
2021/12/23 07:42:00;;;;;;;;;;;;;;;;;;5056154;28;19925;-76
2021/12/23 07:44:25;;;;;;;;;;;;;;;;;;5055092;28;20271;-77
2021/12/23 07:46:50;;;;;;;;;;;;;;;;;;5055504;28;19916;-76
2021/12/23 07:49:16;;;;;;;;;;;;;;;;;;5055657;28;20312;-80
2021/12/23 07:51:41;;;;;;;;;;;;;;;;;;5034981;28;19962;-76
2021/12/23 07:54:07;;;;;;;;;;;;;;;;;;5036023;28;19917;-78
2021/12/23 07:56:32;;;;;;;;;;;;;;;;;;5052750;28;19917;-78
2021/12/23 07:58:58;;;;;;;;;;;;;;;;;;5055858;28;19924;-77
2021/12/23 08:01:23;;;;;;;;;;;;;;;;;;5055303;28;20004;-78
2021/12/23 08:03:48;;;;;;;;;;;;;;;;;;5056384;28;20452;-77
2021/12/23 08:06:14;;;;;;;;;;;;;;;;;;5055307;28;20324;-77
2021/12/23 08:08:39;;;;;;;;;;;;;;;;;;5055747;28;19932;-77
2021/12/23 08:11:06;;;;;;;;;;;;;;;;;;5055067;28;20011;-75
2021/12/23 08:13:32;;;;;;;;;;;;;;;;;;5055505;28;19923;-76
2021/12/23 08:15:58;;;;;;;;;;;;;;;;;;5055473;28;19917;-76
2021/12/23 08:18:24;;;;;;;;;;;;;;;;;;5051984;28;19917;-78
2021/12/23 08:20:50;;;;;;;;;;;;;;;;;;5035704;28;19929;-76
2021/12/23 08:23:15;;;;;;;;;;;;;;;;;;5036158;28;19963;-77
2021/12/23 08:25:40;;;;;;;;;;;;;;;;;;5047396;28;19932;-75
2021/12/23 08:28:06;;;;;;;;;;;;;;;;;;5055207;28;20019;-76
2021/12/23 08:30:32;;;;;;;;;;;;;;;;;;5051066;28;19917;-77
2021/12/23 08:32:58;;;;;;;;;;;;;;;;;;5035025;28;20020;-77
2021/12/23 08:35:23;;;;;;;;;;;;;;;;;;5035189;28;19960;-77
2021/12/23 08:37:49;;;;;;;;;;;;;;;;;;5034784;28;19924;-76
2021/12/23 08:40:16;;;;;;;;;;;;;;;;;;5034562;28;19917;-76
2021/12/23 08:42:41;;;;;;;;;;;;;;;;;;5034884;28;20267;-77
2021/12/23 08:45:07;;;;;;;;;;;;;;;;;;5034848;28;19979;-76
2021/12/23 08:47:36;;;;;;;;;;;;;;;;;;5033590;28;20285;-75
2021/12/23 08:50:03;;;;;;;;;;;;;;;;;;5039611;28;19966;-75
2021/12/23 08:52:29;;;;;;;;;;;;;;;;;;5054964;28;19917;-76
2021/12/23 08:54:54;;;;;;;;;;;;;;;;;;5053527;28;19917;-76
2021/12/23 08:57:19;;;;;;;;;;;;;;;;;;5053390;28;20123;-76
2021/12/23 08:59:46;;;;;;;;;;;;;;;;;;5053456;28;19921;-76
2021/12/23 09:02:11;;;;;;;;;;;;;;;;;;5036565;28;19917;-76
2021/12/23 09:04:38;;;;;;;;;;;;;;;;;;5053124;28;19928;-77
2021/12/23 09:07:07;;;;;;;;;;;;;;;;;;5036556;28;19920;-77
2021/12/23 09:09:34;;;;;;;;;;;;;;;;;;5049152;28;19921;-76
2021/12/23 09:12:00;;;;;;;;;;;;;;;;;;5017607;28;19927;-76
2021/12/23 09:14:26;;;;;;;;;;;;;;;;;;5014911;28;19967;-75
2021/12/23 09:16:51;;;;;;;;;;;;;;;;;;5014354;28;19924;-76
2021/12/23 09:19:17;;;;;;;;;;;;;;;;;;5023805;28;19917;-76
2021/12/23 09:21:42;;;;;;;;;;;;;;;;;;5033346;28;19917;-77
2021/12/23 09:24:07;;;;;;;;;;;;;;;;;;5032291;28;20000;-76
2021/12/23 09:26:42;;;;;;;;;;;;;;;;;;5033879;28;19927;-77
2021/12/23 09:29:14;;;;;;;;;;;;;;;;;;5033092;28;19921;-76
2021/12/23 09:34:23;;;;;;;;;;;;;;;;;;5042826;28;19917;-74
2021/12/23 09:36:49;;;;;;;;;;;;;;;;;;5050216;28;19924;-75
2021/12/23 09:39:14;;;;;;;;;;;;;;;;;;5053225;28;19923;-74
2021/12/23 09:41:41;;;;;;;;;;;;;;;;;;5053439;28;20337;-75
2021/12/23 09:44:08;;;;;;;;;;;;;;;;;;5053887;28;19920;-74
2021/12/23 09:46:36;;;;;;;;;;;;;;;;;;5053879;28;19923;-75
2021/12/23 09:49:03;;;;;;;;;;;;;;;;;;5053397;28;19920;-75
2021/12/23 09:51:30;;;;;;;;;;;;;;;;;;5052575;28;19952;-75
2021/12/23 09:53:57;;;;;;;;;;;;;;;;;;5053489;28;20293;-75
2021/12/23 09:56:23;;;;;;;;;;;;;;;;;;5052250;28;19939;-75
2021/12/23 09:58:49;;;;;;;;;;;;;;;;;;5053525;28;19912;-75
2021/12/23 10:01:14;;;;;;;;;;;;;;;;;;5053402;28;19916;-74
2021/12/23 10:03:39;;;;;;;;;;;;;;;;;;5051211;28;19960;-75
2021/12/23 10:06:05;;;;;;;;;;;;;;;;;;5052840;28;20015;-74
2021/12/23 10:08:30;;;;;;;;;;;;;;;;;;5053378;28;19916;-74
2021/12/23 10:32:52;;;;;;;;;;;;;;;;;;5052157;28;19939;-76
2021/12/23 10:38:08;;;;;;;;;;;;;;;;;;5053212;28;19963;-76
2021/12/23 10:40:34;;;;;;;;;;;;;;;;;;5053303;28;20266;-76
2021/12/23 10:42:59;;;;;;;;;;;;;;;;;;5053171;28;19924;-76
2021/12/23 10:45:31;;;;;;;;;;;;;;;;;;5052854;28;20007;-76
2021/12/23 10:48:03;;;;;;;;;;;;;;;;;;5053124;28;19986;-76
2021/12/23 10:50:45;;;;;;;;;;;;;;;;;;5053385;28;19942;-76
2021/12/23 10:53:23;;;;;;;;;;;;;;;;;;5053230;28;19935;-76
2021/12/23 10:58:59;;;;;;;;;;;;;;;;;;5053098;28;20015;-76
2021/12/23 11:01:24;;;;;;;;;;;;;;;;;;5052895;28;20328;-76
2021/12/23 11:03:51;;;;;;;;;;;;;;;;;;5056806;28;19927;-76
2021/12/23 11:06:26;;;;;;;;;;;;;;;;;;5055520;28;20019;-76
2021/12/23 11:11:37;;;;;;;;;;;;;;;;;;5056846;28;19921;-76
2021/12/23 11:43:50;;;;;;;;;;;;;;;;;;5056036;28;19920;-74
2021/12/23 11:46:23;;;;;;;;;;;;;;;;;;5054709;28;20378;-74
2021/12/23 11:48:52;;;;;;;;;;;;;;;;;;5055960;28;19917;-74
2021/12/23 11:51:29;;;;;;;;;;;;;;;;;;5055991;28;19917;-75
2021/12/23 11:53:54;;;;;;;;;;;;;;;;;;5054259;28;19917;-74
2021/12/23 11:56:21;;;;;;;;;;;;;;;;;;5055789;28;19928;-74
2021/12/23 11:58:48;;;;;;;;;;;;;;;;;;5055484;28;19920;-74
2021/12/23 12:01:21;;;;;;;;;;;;;;;;;;5055699;28;19924;-74
2021/12/23 12:03:54;;;;;;;;;;;;;;;;;;5047216;28;19992;-74
2021/12/23 12:06:23;;;;;;;;;;;;;;;;;;5035737;28;20276;-74
2021/12/23 12:08:51;;;;;;;;;;;;;;;;;;5035703;28;19917;-74
2021/12/23 12:11:21;;;;;;;;;;;;;;;;;;5035540;28;20358;-75
2021/12/23 12:13:47;;;;;;;;;;;;;;;;;;5049011;28;20265;-75
2021/12/23 12:16:30;;;;;;;;;;;;;;;;;;5055328;28;19923;-75
2021/12/23 12:18:56;;;;;;;;;;;;;;;;;;5054291;28;20323;-75
2021/12/23 12:21:22;;;;;;;;;;;;;;;;;;5055228;28;19913;-74
2021/12/23 12:23:49;;;;;;;;;;;;;;;;;;5055285;28;19917;-75
2021/12/23 12:26:24;;;;;;;;;;;;;;;;;;5054953;28;20340;-74
2021/12/23 12:28:50;;;;;;;;;;;;;;;;;;5055435;28;19917;-74
2021/12/23 12:31:17;;;;;;;;;;;;;;;;;;5055430;28;19963;-74
2021/12/23 12:33:54;;;;;;;;;;;;;;;;;;5055016;28;20293;-74
2021/12/23 12:36:20;;;;;;;;;;;;;;;;;;5045889;28;19927;-74
2021/12/23 12:38:51;;;;;;;;;;;;;;;;;;5035133;28;20008;-75
2021/12/23 12:41:26;;;;;;;;;;;;;;;;;;5033358;28;19952;-76
2021/12/23 12:44:00;;;;;;;;;;;;;;;;;;5034237;28;19955;-74
2021/12/23 12:47:03;;;;;;;;;;;;;;;;;;5040917;28;19925;-75
2021/12/23 12:49:34;;;;;;;;;;;;;;;;;;5051820;28;19979;-77
2021/12/23 12:52:08;;;;;;;;;;;;;;;;;;5053563;28;19921;-77
2021/12/23 12:54:38;;;;;;;;;;;;;;;;;;5053976;28;19971;-77
2021/12/23 12:57:05;;;;;;;;;;;;;;;;;;5054384;28;19947;-77
2021/12/23 12:59:31;;;;;;;;;;;;;;;;;;5054474;28;19964;-77
2021/12/23 13:01:58;;;;;;;;;;;;;;;;;;5053196;28;20013;-77
2021/12/23 13:04:29;;;;;;;;;;;;;;;;;;5053119;28;19917;-77
2021/12/23 13:06:56;;;;;;;;;;;;;;;;;;5054386;28;19959;-76
2021/12/23 13:09:54;;;;;;;;;;;;;;;;;;5054218;28;20337;-76
2021/12/23 13:12:51;;;;;;;;;;;;;;;;;;5053458;28;19923;-76
2021/12/23 13:15:39;;;;;;;;;;;;;;;;;;5053252;28;19916;-76
2021/12/23 13:18:18;;;;;;;;;;;;;;;;;;5038397;28;19921;-76
2021/12/23 13:20:51;;;;;;;;;;;;;;;;;;5034555;28;19924;-77
2021/12/23 13:23:29;;;;;;;;;;;;;;;;;;5035172;28;19917;-75
2021/12/23 13:25:59;;;;;;;;;;;;;;;;;;5034233;28;19967;-73
2021/12/23 13:28:38;;;;;;;;;;;;;;;;;;5016394;28;19917;-74
2021/12/23 13:31:13;;;;;;;;;;;;;;;;;;5034090;28;19917;-74
2021/12/23 13:33:55;;;;;;;;;;;;;;;;;;5032558;28;19952;-74
2021/12/23 13:36:28;;;;;;;;;;;;;;;;;;5033956;28;19921;-74
2021/12/23 13:39:00;;;;;;;;;;;;;;;;;;5033814;28;19968;-73
2021/12/23 13:41:27;;;;;;;;;;;;;;;;;;5033993;28;19917;-74
2021/12/23 13:43:54;;;;;;;;;;;;;;;;;;5032678;28;19917;-74
2021/12/23 13:46:19;;;;;;;;;;;;;;;;;;5033654;28;19971;-73
2021/12/23 13:48:49;;;;;;;;;;;;;;;;;;5033101;28;19952;-74
2021/12/23 13:51:14;;;;;;;;;;;;;;;;;;5033561;28;19971;-74
2021/12/23 13:53:40;;;;;;;;;;;;;;;;;;5032557;28;19964;-74
2021/12/23 13:56:15;;;;;;;;;;;;;;;;;;5033695;28;19964;-74
2021/12/23 13:58:40;;;;;;;;;;;;;;;;;;5033780;28;19967;-74
2021/12/23 14:01:05;;;;;;;;;;;;;;;;;;5033274;28;19917;-74
2021/12/23 14:03:31;;;;;;;;;;;;;;;;;;5031974;28;20351;-74
2021/12/23 14:05:56;;;;;;;;;;;;;;;;;;5040332;28;19928;-74
2021/12/23 14:08:21;;;;;;;;;;;;;;;;;;5053456;28;19924;-74
2021/12/23 14:10:47;;;;;;;;;;;;;;;;;;5053532;28;19917;-74
2021/12/23 14:13:17;;;;;;;;;;;;;;;;;;5052220;28;19916;-74
2021/12/23 14:16:07;;;;;;;;;;;;;;;;;;5050934;28;20379;-74
2021/12/23 14:23:29;;;;;;;;;;;;;;;;;;5052234;28;20402;-74
2021/12/23 14:26:01;;;;;;;;;;;;;;;;;;5052120;28;20019;-74
2021/12/23 14:28:28;;;;;;;;;;;;;;;;;;5053258;28;19967;-74
2021/12/23 14:30:54;;;;;;;;;;;;;;;;;;5053218;28;19924;-74
2021/12/23 14:33:24;;;;;;;;;;;;;;;;;;5052217;28;20301;-74
2021/12/23 14:35:51;;;;;;;;;;;;;;;;;;5053878;28;19920;-74
2021/12/23 14:38:22;;;;;;;;;;;;;;;;;;5057368;28;19916;-74
2021/12/23 14:41:02;;;;;;;;;;;;;;;;;;5057345;28;20012;-74
2021/12/23 14:43:27;;;;;;;;;;;;;;;;;;5057170;28;19917;-74
2021/12/23 14:45:54;;;;;;;;;;;;;;;;;;5056950;28;19925;-74
2021/12/23 14:48:19;;;;;;;;;;;;;;;;;;5057053;28;19917;-75
2021/12/23 14:51:01;;;;;;;;;;;;;;;;;;5057760;28;19962;-75
2021/12/23 14:53:26;;;;;;;;;;;;;;;;;;5039039;28;19959;-74
2021/12/23 14:55:53;;;;;;;;;;;;;;;;;;5016991;28;19961;-74
2021/12/23 14:58:18;;;;;;;;;;;;;;;;;;5016281;28;19972;-75
2021/12/23 15:00:45;;;;;;;;;;;;;;;;;;5017099;28;20345;-74
2021/12/23 15:03:27;;;;;;;;;;;;;;;;;;5019220;28;19947;-74
2021/12/23 15:05:54;;;;;;;;;;;;;;;;;;5055525;28;19970;-75
2021/12/23 15:08:22;;;;;;;;;;;;;;;;;;5017768;28;19924;-75
2021/12/23 15:10:55;;;;;;;;;;;;;;;;;;5025163;28;19924;-76
2021/12/23 15:13:27;;;;;;;;;;;;;;;;;;5025443;28;20323;-75
2021/12/23 15:16:03;;;;;;;;;;;;;;;;;;5025181;28;19921;-74
2021/12/23 15:18:42;;;;;;;;;;;;;;;;;;5025988;28;19972;-74
2021/12/23 15:21:19;;;;;;;;;;;;;;;;;;5008873;28;19960;-74
2021/12/23 15:23:46;;;;;;;;;;;;;;;;;;5026811;28;19921;-75
2021/12/23 15:26:24;;;;;;;;;;;;;;;;;;5023856;28;20386;-74
2021/12/23 15:29:10;;;;;;;;;;;;;;;;;;5027471;28;19932;-75
2021/12/23 15:31:36;;;;;;;;;;;;;;;;;;5026942;28;19925;-75
2021/12/23 15:34:06;;;;;;;;;;;;;;;;;;5025477;28;19971;-74
2021/12/23 15:36:31;;;;;;;;;;;;;;;;;;5025532;28;19917;-74
2021/12/23 15:39:17;;;;;;;;;;;;;;;;;;5026101;28;19917;-75
2021/12/23 15:41:46;;;;;;;;;;;;;;;;;;5047548;28;20381;-75
2021/12/23 15:44:11;;;;;;;;;;;;;;;;;;5026659;28;19917;-75
2021/12/23 15:46:37;;;;;;;;;;;;;;;;;;5024947;28;19928;-74
2021/12/23 15:49:02;;;;;;;;;;;;;;;;;;5025018;28;20008;-74
2021/12/23 15:51:30;;;;;;;;;;;;;;;;;;5026355;28;19924;-75
2021/12/23 15:53:55;;;;;;;;;;;;;;;;;;5023814;28;20393;-75
2021/12/23 15:56:21;;;;;;;;;;;;;;;;;;5026230;28;19918;-74
2021/12/23 15:58:50;;;;;;;;;;;;;;;;;;5025747;28;19917;-75
2021/12/23 16:01:15;;;;;;;;;;;;;;;;;;5024731;28;19926;-74
2021/12/23 16:03:41;;;;;;;;;;;;;;;;;;5020664;28;19928;-75
2021/12/23 16:09:18;;;;;;;;;;;;;;;;;;5048964;28;19932;-75
2021/12/23 16:11:52;;;;;;;;;;;;;;;;;;5024035;28;20405;-75
2021/12/23 16:14:24;;;;;;;;;;;;;;;;;;5035006;28;19917;-75
2021/12/23 16:16:51;;;;;;;;;;;;;;;;;;5037890;28;19968;-75
2021/12/23 16:19:17;;;;;;;;;;;;;;;;;;5037683;28;19917;-75
2021/12/23 16:21:43;;;;;;;;;;;;;;;;;;5055511;28;19921;-75
2021/12/23 16:24:08;;;;;;;;;;;;;;;;;;5037631;28;20414;-75
2021/12/23 16:26:34;;;;;;;;;;;;;;;;;;5053815;28;20020;-75
2021/12/23 16:28:59;;;;;;;;;;;;;;;;;;5055405;28;19932;-74
2021/12/23 16:31:25;;;;;;;;;;;;;;;;;;5055128;28;19940;-75
2021/12/23 16:33:51;;;;;;;;;;;;;;;;;;5054052;28;19942;-74
2021/12/23 16:36:16;;;;;;;;;;;;;;;;;;5054917;28;20437;-75
2021/12/23 16:38:41;;;;;;;;;;;;;;;;;;5054182;28;19963;-75
2021/12/23 16:41:09;;;;;;;;;;;;;;;;;;5055134;28;19920;-76
2021/12/23 16:43:35;;;;;;;;;;;;;;;;;;5029932;28;19925;-76
2021/12/23 16:46:00;;;;;;;;;;;;;;;;;;5023759;28;19925;-75
2021/12/23 16:48:25;;;;;;;;;;;;;;;;;;5025427;28;20436;-76
2021/12/23 16:50:51;;;;;;;;;;;;;;;;;;5023869;28;20004;-75
2021/12/23 16:53:17;;;;;;;;;;;;;;;;;;5027768;28;19917;-76
2021/12/23 16:55:55;;;;;;;;;;;;;;;;;;5025066;28;19917;-76
2021/12/23 16:58:21;;;;;;;;;;;;;;;;;;5025069;28;19921;-76
2021/12/23 17:00:48;;;;;;;;;;;;;;;;;;5022888;28;19924;-76
2021/12/23 17:03:13;;;;;;;;;;;;;;;;;;5027694;28;19921;-76
2021/12/23 17:05:39;;;;;;;;;;;;;;;;;;5035136;28;19924;-75
2021/12/23 17:08:05;;;;;;;;;;;;;;;;;;5034401;28;20359;-72
2021/12/23 17:10:31;;;;;;;;;;;;;;;;;;5026048;28;20413;-73
2021/12/23 17:12:57;;;;;;;;;;;;;;;;;;5033956;28;19917;-73
2021/12/23 17:15:24;;;;;;;;;;;;;;;;;;5034078;28;20345;-74
2021/12/23 17:17:50;;;;;;;;;;;;;;;;;;5033733;28;19917;-74
2021/12/23 17:23:14;;;;;;;;;;;;;;;;;;4996012;28;19925;-76
2021/12/23 17:25:40;;;;;;;;;;;;;;;;;;5033862;28;20378;-74
2021/12/23 17:28:07;;;;;;;;;;;;;;;;;;5030963;28;19923;-75
2021/12/23 17:30:32;;;;;;;;;;;;;;;;;;5026467;28;20077;-74
2021/12/23 17:32:58;;;;;;;;;;;;;;;;;;5032993;28;20034;-77
2021/12/23 17:35:26;;;;;;;;;;;;;;;;;;5032263;28;19917;-76
2021/12/23 17:37:55;;;;;;;;;;;;;;;;;;5044532;28;19924;-76
2021/12/23 17:40:21;;;;;;;;;;;;;;;;;;5054533;28;19943;-74
2021/12/23 17:42:46;;;;;;;;;;;;;;;;;;5053709;28;19917;-75
2021/12/23 17:45:11;;;;;;;;;;;;;;;;;;5054201;28;20011;-75
2021/12/23 17:47:37;;;;;;;;;;;;;;;;;;5053818;28;19920;-75
2021/12/23 17:50:02;;;;;;;;;;;;;;;;;;5053655;28;19917;-74
2021/12/23 17:52:29;;;;;;;;;;;;;;;;;;5050723;28;21393;-74
2021/12/23 17:54:55;;;;;;;;;;;;;;;;;;5051949;28;19943;-74
2021/12/23 17:57:22;;;;;;;;;;;;;;;;;;5053689;28;19917;-74
2021/12/23 17:59:47;;;;;;;;;;;;;;;;;;5052630;28;20020;-74
2021/12/23 18:02:12;;;;;;;;;;;;;;;;;;5052190;28;20016;-73
2021/12/23 18:04:38;;;;;;;;;;;;;;;;;;5053839;28;20020;-73
2021/12/23 18:07:03;;;;;;;;;;;;;;;;;;5052219;28;19921;-72
2021/12/23 18:09:28;;;;;;;;;;;;;;;;;;5053364;28;20341;-72
2021/12/23 18:11:54;;;;;;;;;;;;;;;;;;5052780;28;19943;-71